sensor_id;sensor_type;location;lat;lon;timestamp;P1;durP1;ratioP1;P2;durP2;ratioP2
12906;SDS011;6521;50.498;8.474;2023-04-28T00:01:21;10.73;;;7.30;;
12906;SDS011;6521;50.498;8.474;2023-04-28T00:04:12;11.23;;;6.53;;
12906;SDS011;6521;50.498;8.474;2023-04-28T00:07:03;7.37;;;6.17;;
12906;SDS011;6521;50.498;8.474;2023-04-28T00:09:54;7.37;;;6.17;;
12906;SDS011;6521;50.498;8.474;2023-04-28T00:12:46;10.13;;;6.83;;
12906;SDS011;6521;50.498;8.474;2023-04-28T00:15:37;9.77;;;6.97;;
12906;SDS011;6521;50.498;8.474;2023-04-28T00:18:27;8.97;;;6.30;;
12906;SDS011;6521;50.498;8.474;2023-04-28T00:21:18;8.43;;;6.43;;
12906;SDS011;6521;50.498;8.474;2023-04-28T00:24:09;10.47;;;6.87;;
12906;SDS011;6521;50.498;8.474;2023-04-28T00:27:00;8.90;;;6.67;;
12906;SDS011;6521;50.498;8.474;2023-04-28T00:29:50;10.10;;;7.03;;
12906;SDS011;6521;50.498;8.474;2023-04-28T00:32:42;17.63;;;7.27;;
12906;SDS011;6521;50.498;8.474;2023-04-28T00:35:33;10.83;;;7.50;;
12906;SDS011;6521;50.498;8.474;2023-04-28T00:38:24;8.83;;;6.57;;
12906;SDS011;6521;50.498;8.474;2023-04-28T00:41:15;7.57;;;6.23;;
12906;SDS011;6521;50.498;8.474;2023-04-28T00:44:05;8.97;;;6.73;;
12906;SDS011;6521;50.498;8.474;2023-04-28T00:46:57;12.43;;;6.33;;
12906;SDS011;6521;50.498;8.474;2023-04-28T00:49:48;6.90;;;6.00;;
12906;SDS011;6521;50.498;8.474;2023-04-28T00:52:39;8.53;;;6.60;;
12906;SDS011;6521;50.498;8.474;2023-04-28T00:55:30;9.83;;;6.03;;
12906;SDS011;6521;50.498;8.474;2023-04-28T00:58:24;12.83;;;6.67;;
12906;SDS011;6521;50.498;8.474;2023-04-28T01:01:15;7.50;;;6.67;;
12906;SDS011;6521;50.498;8.474;2023-04-28T01:04:06;9.23;;;6.50;;
12906;SDS011;6521;50.498;8.474;2023-04-28T01:06:59;8.40;;;6.57;;
12906;SDS011;6521;50.498;8.474;2023-04-28T01:09:51;9.63;;;6.93;;
12906;SDS011;6521;50.498;8.474;2023-04-28T01:12:47;10.07;;;7.23;;
12906;SDS011;6521;50.498;8.474;2023-04-28T01:15:38;7.53;;;6.73;;
12906;SDS011;6521;50.498;8.474;2023-04-28T01:18:28;9.93;;;6.43;;
12906;SDS011;6521;50.498;8.474;2023-04-28T01:21:27;8.80;;;6.60;;
12906;SDS011;6521;50.498;8.474;2023-04-28T01:24:22;8.80;;;6.40;;
12906;SDS011;6521;50.498;8.474;2023-04-28T01:27:14;9.87;;;6.90;;
12906;SDS011;6521;50.498;8.474;2023-04-28T01:30:06;8.63;;;6.30;;
12906;SDS011;6521;50.498;8.474;2023-04-28T01:32:57;8.60;;;6.60;;
12906;SDS011;6521;50.498;8.474;2023-04-28T01:35:49;9.03;;;6.53;;
12906;SDS011;6521;50.498;8.474;2023-04-28T01:38:40;12.13;;;6.80;;
12906;SDS011;6521;50.498;8.474;2023-04-28T01:41:31;9.73;;;6.20;;
12906;SDS011;6521;50.498;8.474;2023-04-28T01:44:23;8.67;;;6.67;;
12906;SDS011;6521;50.498;8.474;2023-04-28T01:47:14;9.03;;;6.80;;
12906;SDS011;6521;50.498;8.474;2023-04-28T01:50:05;12.67;;;7.67;;
12906;SDS011;6521;50.498;8.474;2023-04-28T01:52:56;10.87;;;6.80;;
12906;SDS011;6521;50.498;8.474;2023-04-28T01:55:47;10.30;;;7.80;;
12906;SDS011;6521;50.498;8.474;2023-04-28T01:58:39;7.03;;;6.20;;
12906;SDS011;6521;50.498;8.474;2023-04-28T02:01:31;9.97;;;7.17;;
12906;SDS011;6521;50.498;8.474;2023-04-28T02:04:22;12.13;;;7.30;;
12906;SDS011;6521;50.498;8.474;2023-04-28T02:07:12;8.60;;;6.97;;
12906;SDS011;6521;50.498;8.474;2023-04-28T02:10:03;10.33;;;7.17;;
12906;SDS011;6521;50.498;8.474;2023-04-28T02:12:55;8.67;;;7.00;;
12906;SDS011;6521;50.498;8.474;2023-04-28T02:15:45;8.30;;;6.77;;
12906;SDS011;6521;50.498;8.474;2023-04-28T02:18:36;11.80;;;7.20;;
12906;SDS011;6521;50.498;8.474;2023-04-28T02:21:27;13.47;;;7.43;;
12906;SDS011;6521;50.498;8.474;2023-04-28T02:24:18;9.87;;;7.33;;
12906;SDS011;6521;50.498;8.474;2023-04-28T02:27:09;10.23;;;7.23;;
12906;SDS011;6521;50.498;8.474;2023-04-28T02:29:59;12.80;;;7.73;;
12906;SDS011;6521;50.498;8.474;2023-04-28T02:32:51;9.17;;;7.10;;
12906;SDS011;6521;50.498;8.474;2023-04-28T02:35:42;7.30;;;6.00;;
12906;SDS011;6521;50.498;8.474;2023-04-28T02:38:33;10.47;;;7.23;;
12906;SDS011;6521;50.498;8.474;2023-04-28T02:41:24;9.23;;;7.20;;
12906;SDS011;6521;50.498;8.474;2023-04-28T02:44:15;8.37;;;6.47;;
12906;SDS011;6521;50.498;8.474;2023-04-28T02:47:06;8.67;;;6.83;;
12906;SDS011;6521;50.498;8.474;2023-04-28T02:49:58;9.17;;;7.17;;
12906;SDS011;6521;50.498;8.474;2023-04-28T02:52:48;9.17;;;7.37;;
12906;SDS011;6521;50.498;8.474;2023-04-28T02:55:39;13.20;;;7.30;;
12906;SDS011;6521;50.498;8.474;2023-04-28T02:58:30;10.83;;;8.00;;
12906;SDS011;6521;50.498;8.474;2023-04-28T03:01:21;9.83;;;8.10;;
12906;SDS011;6521;50.498;8.474;2023-04-28T03:04:13;13.33;;;8.83;;
12906;SDS011;6521;50.498;8.474;2023-04-28T03:07:04;11.20;;;8.23;;
12906;SDS011;6521;50.498;8.474;2023-04-28T03:09:55;12.53;;;8.20;;
12906;SDS011;6521;50.498;8.474;2023-04-28T03:12:46;12.50;;;8.57;;
12906;SDS011;6521;50.498;8.474;2023-04-28T03:15:37;12.30;;;8.37;;
12906;SDS011;6521;50.498;8.474;2023-04-28T03:18:28;11.63;;;8.07;;
12906;SDS011;6521;50.498;8.474;2023-04-28T03:21:19;11.47;;;7.83;;
12906;SDS011;6521;50.498;8.474;2023-04-28T03:24:10;10.30;;;8.57;;
12906;SDS011;6521;50.498;8.474;2023-04-28T03:27:02;10.97;;;8.00;;
12906;SDS011;6521;50.498;8.474;2023-04-28T03:29:53;13.90;;;8.60;;
12906;SDS011;6521;50.498;8.474;2023-04-28T03:32:45;9.23;;;8.20;;
12906;SDS011;6521;50.498;8.474;2023-04-28T03:35:35;11.00;;;8.57;;
12906;SDS011;6521;50.498;8.474;2023-04-28T03:38:26;9.00;;;7.93;;
12906;SDS011;6521;50.498;8.474;2023-04-28T03:41:18;11.07;;;7.90;;
12906;SDS011;6521;50.498;8.474;2023-04-28T03:44:27;9.40;;;7.20;;
12906;SDS011;6521;50.498;8.474;2023-04-28T03:47:18;11.47;;;8.00;;
12906;SDS011;6521;50.498;8.474;2023-04-28T03:50:09;12.20;;;8.07;;
12906;SDS011;6521;50.498;8.474;2023-04-28T03:53:00;14.20;;;7.40;;
12906;SDS011;6521;50.498;8.474;2023-04-28T03:55:52;11.47;;;7.07;;
12906;SDS011;6521;50.498;8.474;2023-04-28T03:58:43;7.83;;;6.63;;
12906;SDS011;6521;50.498;8.474;2023-04-28T04:01:34;12.70;;;7.10;;
12906;SDS011;6521;50.498;8.474;2023-04-28T04:04:25;9.07;;;6.37;;
12906;SDS011;6521;50.498;8.474;2023-04-28T04:07:16;10.73;;;6.83;;
12906;SDS011;6521;50.498;8.474;2023-04-28T04:10:07;7.73;;;6.57;;
12906;SDS011;6521;50.498;8.474;2023-04-28T04:13:00;9.93;;;6.87;;
12906;SDS011;6521;50.498;8.474;2023-04-28T04:15:51;7.10;;;6.40;;
12906;SDS011;6521;50.498;8.474;2023-04-28T04:18:44;10.50;;;7.07;;
12906;SDS011;6521;50.498;8.474;2023-04-28T04:21:41;8.30;;;7.10;;
12906;SDS011;6521;50.498;8.474;2023-04-28T04:24:32;11.07;;;6.83;;
12906;SDS011;6521;50.498;8.474;2023-04-28T04:27:23;9.87;;;7.50;;
12906;SDS011;6521;50.498;8.474;2023-04-28T04:30:15;9.90;;;8.00;;
12906;SDS011;6521;50.498;8.474;2023-04-28T04:33:06;12.67;;;8.20;;
12906;SDS011;6521;50.498;8.474;2023-04-28T04:35:57;9.93;;;7.60;;
12906;SDS011;6521;50.498;8.474;2023-04-28T04:38:48;14.23;;;8.10;;
12906;SDS011;6521;50.498;8.474;2023-04-28T04:41:41;13.53;;;7.90;;
12906;SDS011;6521;50.498;8.474;2023-04-28T04:44:54;14.43;;;8.53;;
12906;SDS011;6521;50.498;8.474;2023-04-28T04:47:53;12.27;;;8.07;;
12906;SDS011;6521;50.498;8.474;2023-04-28T04:50:44;12.93;;;8.30;;
12906;SDS011;6521;50.498;8.474;2023-04-28T04:53:35;16.13;;;8.07;;
12906;SDS011;6521;50.498;8.474;2023-04-28T04:56:26;12.03;;;7.87;;
12906;SDS011;6521;50.498;8.474;2023-04-28T04:59:17;13.13;;;8.23;;
12906;SDS011;6521;50.498;8.474;2023-04-28T05:02:14;24.97;;;8.80;;
12906;SDS011;6521;50.498;8.474;2023-04-28T05:05:05;20.53;;;8.70;;
12906;SDS011;6521;50.498;8.474;2023-04-28T05:07:56;15.10;;;9.50;;
12906;SDS011;6521;50.498;8.474;2023-04-28T05:10:47;12.33;;;8.83;;
12906;SDS011;6521;50.498;8.474;2023-04-28T05:13:39;14.53;;;8.73;;
12906;SDS011;6521;50.498;8.474;2023-04-28T05:16:30;13.50;;;9.03;;
12906;SDS011;6521;50.498;8.474;2023-04-28T05:19:37;17.40;;;8.97;;
12906;SDS011;6521;50.498;8.474;2023-04-28T05:22:28;17.40;;;9.30;;
12906;SDS011;6521;50.498;8.474;2023-04-28T05:25:20;15.10;;;9.17;;
12906;SDS011;6521;50.498;8.474;2023-04-28T05:28:11;9.27;;;8.23;;
12906;SDS011;6521;50.498;8.474;2023-04-28T05:31:05;12.33;;;8.97;;
12906;SDS011;6521;50.498;8.474;2023-04-28T05:33:56;17.73;;;9.93;;
12906;SDS011;6521;50.498;8.474;2023-04-28T05:36:49;18.33;;;9.87;;
12906;SDS011;6521;50.498;8.474;2023-04-28T05:39:43;16.53;;;9.67;;
12906;SDS011;6521;50.498;8.474;2023-04-28T05:42:33;13.27;;;9.57;;
12906;SDS011;6521;50.498;8.474;2023-04-28T05:45:24;12.90;;;9.63;;
12906;SDS011;6521;50.498;8.474;2023-04-28T05:48:16;14.17;;;9.47;;
12906;SDS011;6521;50.498;8.474;2023-04-28T05:51:07;15.37;;;10.47;;
12906;SDS011;6521;50.498;8.474;2023-04-28T05:53:58;19.90;;;10.77;;
12906;SDS011;6521;50.498;8.474;2023-04-28T05:56:52;13.03;;;9.63;;
12906;SDS011;6521;50.498;8.474;2023-04-28T05:59:43;17.83;;;9.80;;
12906;SDS011;6521;50.498;8.474;2023-04-28T06:02:37;16.00;;;9.87;;
12906;SDS011;6521;50.498;8.474;2023-04-28T06:05:28;13.97;;;9.57;;
12906;SDS011;6521;50.498;8.474;2023-04-28T06:08:19;12.23;;;10.17;;
12906;SDS011;6521;50.498;8.474;2023-04-28T06:11:10;23.13;;;11.03;;
12906;SDS011;6521;50.498;8.474;2023-04-28T06:14:02;16.13;;;10.40;;
12906;SDS011;6521;50.498;8.474;2023-04-28T06:16:53;14.80;;;10.43;;
12906;SDS011;6521;50.498;8.474;2023-04-28T06:19:44;21.03;;;9.93;;
12906;SDS011;6521;50.498;8.474;2023-04-28T06:22:35;22.07;;;10.70;;
12906;SDS011;6521;50.498;8.474;2023-04-28T06:25:26;17.50;;;10.97;;
12906;SDS011;6521;50.498;8.474;2023-04-28T06:28:17;14.53;;;10.57;;
12906;SDS011;6521;50.498;8.474;2023-04-28T06:31:09;18.63;;;11.03;;
12906;SDS011;6521;50.498;8.474;2023-04-28T06:34:00;14.33;;;11.00;;
12906;SDS011;6521;50.498;8.474;2023-04-28T06:36:50;13.60;;;10.13;;
12906;SDS011;6521;50.498;8.474;2023-04-28T06:39:41;17.23;;;11.33;;
12906;SDS011;6521;50.498;8.474;2023-04-28T06:42:32;17.90;;;10.60;;
12906;SDS011;6521;50.498;8.474;2023-04-28T06:45:30;26.30;;;12.57;;
12906;SDS011;6521;50.498;8.474;2023-04-28T06:48:21;19.83;;;10.93;;
12906;SDS011;6521;50.498;8.474;2023-04-28T06:51:12;17.83;;;11.17;;
12906;SDS011;6521;50.498;8.474;2023-04-28T06:54:04;25.93;;;11.43;;
12906;SDS011;6521;50.498;8.474;2023-04-28T06:56:55;13.77;;;11.47;;
12906;SDS011;6521;50.498;8.474;2023-04-28T06:59:48;13.13;;;11.30;;
12906;SDS011;6521;50.498;8.474;2023-04-28T07:02:38;14.03;;;9.97;;
12906;SDS011;6521;50.498;8.474;2023-04-28T07:05:29;16.73;;;10.83;;
12906;SDS011;6521;50.498;8.474;2023-04-28T07:08:21;15.70;;;10.80;;
12906;SDS011;6521;50.498;8.474;2023-04-28T07:11:12;15.57;;;10.90;;
12906;SDS011;6521;50.498;8.474;2023-04-28T07:14:03;14.93;;;11.57;;
12906;SDS011;6521;50.498;8.474;2023-04-28T07:16:54;15.90;;;11.70;;
12906;SDS011;6521;50.498;8.474;2023-04-28T07:19:44;16.17;;;12.23;;
12906;SDS011;6521;50.498;8.474;2023-04-28T07:22:35;15.40;;;11.67;;
12906;SDS011;6521;50.498;8.474;2023-04-28T07:25:27;16.07;;;11.43;;
12906;SDS011;6521;50.498;8.474;2023-04-28T07:28:19;16.90;;;11.40;;
12906;SDS011;6521;50.498;8.474;2023-04-28T07:31:09;14.43;;;10.63;;
12906;SDS011;6521;50.498;8.474;2023-04-28T07:34:00;12.40;;;11.10;;
12906;SDS011;6521;50.498;8.474;2023-04-28T07:36:51;19.47;;;11.17;;
12906;SDS011;6521;50.498;8.474;2023-04-28T07:39:42;17.63;;;11.27;;
12906;SDS011;6521;50.498;8.474;2023-04-28T07:42:33;12.13;;;10.83;;
12906;SDS011;6521;50.498;8.474;2023-04-28T07:45:24;15.43;;;11.67;;
12906;SDS011;6521;50.498;8.474;2023-04-28T07:48:15;15.70;;;11.83;;
12906;SDS011;6521;50.498;8.474;2023-04-28T07:51:06;18.07;;;12.17;;
12906;SDS011;6521;50.498;8.474;2023-04-28T07:53:57;16.37;;;10.87;;
12906;SDS011;6521;50.498;8.474;2023-04-28T07:56:47;19.27;;;12.37;;
12906;SDS011;6521;50.498;8.474;2023-04-28T07:59:39;17.83;;;12.50;;
12906;SDS011;6521;50.498;8.474;2023-04-28T08:02:30;21.40;;;12.03;;
12906;SDS011;6521;50.498;8.474;2023-04-28T08:05:20;16.33;;;13.30;;
12906;SDS011;6521;50.498;8.474;2023-04-28T08:08:11;15.33;;;12.20;;
12906;SDS011;6521;50.498;8.474;2023-04-28T08:11:02;13.93;;;12.40;;
12906;SDS011;6521;50.498;8.474;2023-04-28T08:13:53;17.60;;;13.07;;
12906;SDS011;6521;50.498;8.474;2023-04-28T08:16:43;15.50;;;12.63;;
12906;SDS011;6521;50.498;8.474;2023-04-28T08:19:35;13.30;;;11.83;;
12906;SDS011;6521;50.498;8.474;2023-04-28T08:22:26;16.13;;;12.77;;
12906;SDS011;6521;50.498;8.474;2023-04-28T08:25:17;15.03;;;12.10;;
12906;SDS011;6521;50.498;8.474;2023-04-28T08:28:08;14.93;;;12.17;;
12906;SDS011;6521;50.498;8.474;2023-04-28T08:30:59;14.20;;;11.37;;
12906;SDS011;6521;50.498;8.474;2023-04-28T08:33:50;13.13;;;11.60;;
12906;SDS011;6521;50.498;8.474;2023-04-28T08:36:41;16.80;;;12.27;;
12906;SDS011;6521;50.498;8.474;2023-04-28T08:39:31;18.93;;;10.77;;
12906;SDS011;6521;50.498;8.474;2023-04-28T08:42:23;11.80;;;10.17;;
12906;SDS011;6521;50.498;8.474;2023-04-28T08:45:15;11.53;;;10.33;;
12906;SDS011;6521;50.498;8.474;2023-04-28T08:48:06;11.27;;;10.10;;
12906;SDS011;6521;50.498;8.474;2023-04-28T08:51:04;12.50;;;10.10;;
12906;SDS011;6521;50.498;8.474;2023-04-28T08:53:56;11.00;;;9.87;;
12906;SDS011;6521;50.498;8.474;2023-04-28T08:56:49;11.90;;;10.47;;
12906;SDS011;6521;50.498;8.474;2023-04-28T08:59:40;11.03;;;9.87;;
12906;SDS011;6521;50.498;8.474;2023-04-28T09:02:31;12.63;;;9.53;;
12906;SDS011;6521;50.498;8.474;2023-04-28T09:05:22;9.23;;;8.43;;
12906;SDS011;6521;50.498;8.474;2023-04-28T09:08:13;10.87;;;9.50;;
12906;SDS011;6521;50.498;8.474;2023-04-28T09:11:05;10.87;;;9.73;;
12906;SDS011;6521;50.498;8.474;2023-04-28T09:14:10;10.90;;;9.80;;
12906;SDS011;6521;50.498;8.474;2023-04-28T09:17:02;12.07;;;10.17;;
12906;SDS011;6521;50.498;8.474;2023-04-28T09:20:00;11.85;;;10.75;;
12906;SDS011;6521;50.498;8.474;2023-04-28T09:22:51;12.30;;;11.00;;
12906;SDS011;6521;50.498;8.474;2023-04-28T09:26:03;15.93;;;12.07;;
12906;SDS011;6521;50.498;8.474;2023-04-28T09:29:10;18.77;;;12.60;;
12906;SDS011;6521;50.498;8.474;2023-04-28T09:32:14;15.77;;;12.67;;
12906;SDS011;6521;50.498;8.474;2023-04-28T09:35:09;12.40;;;11.30;;
12906;SDS011;6521;50.498;8.474;2023-04-28T09:38:00;13.93;;;12.43;;
12906;SDS011;6521;50.498;8.474;2023-04-28T09:40:53;14.67;;;13.07;;
12906;SDS011;6521;50.498;8.474;2023-04-28T09:43:49;14.40;;;12.90;;
12906;SDS011;6521;50.498;8.474;2023-04-28T09:46:40;17.93;;;16.03;;
12906;SDS011;6521;50.498;8.474;2023-04-28T09:49:32;14.60;;;13.27;;
12906;SDS011;6521;50.498;8.474;2023-04-28T09:52:45;18.83;;;15.93;;
12906;SDS011;6521;50.498;8.474;2023-04-28T09:55:46;18.23;;;15.40;;
12906;SDS011;6521;50.498;8.474;2023-04-28T09:58:39;16.00;;;13.27;;
12906;SDS011;6521;50.498;8.474;2023-04-28T10:01:35;13.83;;;12.43;;
12906;SDS011;6521;50.498;8.474;2023-04-28T10:04:28;12.93;;;11.73;;
12906;SDS011;6521;50.498;8.474;2023-04-28T10:07:23;15.45;;;13.50;;
12906;SDS011;6521;50.498;8.474;2023-04-28T10:10:13;15.93;;;12.35;;
12906;SDS011;6521;50.498;8.474;2023-04-28T10:13:05;14.80;;;13.00;;
12906;SDS011;6521;50.498;8.474;2023-04-28T10:15:56;14.23;;;12.48;;
12906;SDS011;6521;50.498;8.474;2023-04-28T10:18:47;15.18;;;13.02;;
12906;SDS011;6521;50.498;8.474;2023-04-28T10:21:40;14.25;;;12.75;;
12906;SDS011;6521;50.498;8.474;2023-04-28T10:24:52;13.07;;;11.77;;
12906;SDS011;6521;50.498;8.474;2023-04-28T10:27:55;15.30;;;11.40;;
12906;SDS011;6521;50.498;8.474;2023-04-28T10:34:20;13.48;;;12.13;;
12906;SDS011;6521;50.498;8.474;2023-04-28T10:37:11;12.88;;;11.57;;
12906;SDS011;6521;50.498;8.474;2023-04-28T10:40:50;13.07;;;11.68;;
12906;SDS011;6521;50.498;8.474;2023-04-28T10:46:16;17.63;;;12.60;;
12906;SDS011;6521;50.498;8.474;2023-04-28T10:49:06;12.85;;;11.57;;
12906;SDS011;6521;50.498;8.474;2023-04-28T10:51:57;14.15;;;12.55;;
12906;SDS011;6521;50.498;8.474;2023-04-28T11:04:10;12.43;;;10.98;;
12906;SDS011;6521;50.498;8.474;2023-04-28T11:07:08;11.20;;;9.93;;
12906;SDS011;6521;50.498;8.474;2023-04-28T11:10:00;11.18;;;9.88;;
12906;SDS011;6521;50.498;8.474;2023-04-28T11:16:23;10.50;;;9.50;;
12906;SDS011;6521;50.498;8.474;2023-04-28T11:19:18;10.80;;;9.80;;
12906;SDS011;6521;50.498;8.474;2023-04-28T11:25:06;10.05;;;9.05;;
12906;SDS011;6521;50.498;8.474;2023-04-28T11:28:02;9.63;;;8.80;;
12906;SDS011;6521;50.498;8.474;2023-04-28T11:31:09;11.25;;;10.15;;
12906;SDS011;6521;50.498;8.474;2023-04-28T11:34:05;11.32;;;9.43;;
12906;SDS011;6521;50.498;8.474;2023-04-28T11:36:57;13.73;;;8.57;;
12906;SDS011;6521;50.498;8.474;2023-04-28T11:39:48;8.85;;;8.15;;
12906;SDS011;6521;50.498;8.474;2023-04-28T11:42:46;6.70;;;6.07;;
12906;SDS011;6521;50.498;8.474;2023-04-28T11:45:38;8.65;;;6.80;;
12906;SDS011;6521;50.498;8.474;2023-04-28T11:48:28;8.98;;;6.43;;
12906;SDS011;6521;50.498;8.474;2023-04-28T11:51:33;6.85;;;6.15;;
12906;SDS011;6521;50.498;8.474;2023-04-28T11:54:27;8.23;;;6.18;;
12906;SDS011;6521;50.498;8.474;2023-04-28T11:57:19;7.90;;;6.40;;
12906;SDS011;6521;50.498;8.474;2023-04-28T12:00:13;5.75;;;5.28;;
12906;SDS011;6521;50.498;8.474;2023-04-28T12:03:08;6.47;;;5.72;;
12906;SDS011;6521;50.498;8.474;2023-04-28T12:05:59;6.78;;;6.03;;
12906;SDS011;6521;50.498;8.474;2023-04-28T12:08:50;8.20;;;4.50;;
12906;SDS011;6521;50.498;8.474;2023-04-28T12:11:54;5.10;;;3.78;;
12906;SDS011;6521;50.498;8.474;2023-04-28T12:14:57;5.20;;;4.70;;
12906;SDS011;6521;50.498;8.474;2023-04-28T12:17:49;4.95;;;4.45;;
12906;SDS011;6521;50.498;8.474;2023-04-28T12:20:40;4.70;;;4.20;;
12906;SDS011;6521;50.498;8.474;2023-04-28T12:23:32;4.70;;;4.30;;
12906;SDS011;6521;50.498;8.474;2023-04-28T12:26:25;7.88;;;5.30;;
12906;SDS011;6521;50.498;8.474;2023-04-28T12:29:34;5.57;;;4.40;;
12906;SDS011;6521;50.498;8.474;2023-04-28T12:32:37;5.47;;;4.22;;
12906;SDS011;6521;50.498;8.474;2023-04-28T12:35:34;4.60;;;3.15;;
12906;SDS011;6521;50.498;8.474;2023-04-28T12:38:25;3.75;;;2.78;;
12906;SDS011;6521;50.498;8.474;2023-04-28T12:41:17;3.50;;;3.20;;
12906;SDS011;6521;50.498;8.474;2023-04-28T12:44:08;3.40;;;3.10;;
12906;SDS011;6521;50.498;8.474;2023-04-28T12:46:59;6.45;;;3.70;;
12906;SDS011;6521;50.498;8.474;2023-04-28T12:49:51;3.80;;;3.50;;
12906;SDS011;6521;50.498;8.474;2023-04-28T12:52:42;8.07;;;6.45;;
12906;SDS011;6521;50.498;8.474;2023-04-28T12:55:33;6.18;;;4.13;;
12906;SDS011;6521;50.498;8.474;2023-04-28T12:58:24;5.45;;;4.07;;
12906;SDS011;6521;50.498;8.474;2023-04-28T13:01:15;3.90;;;3.60;;
12906;SDS011;6521;50.498;8.474;2023-04-28T13:04:05;10.15;;;9.25;;
12906;SDS011;6521;50.498;8.474;2023-04-28T13:06:40;9.15;;;7.95;;
12906;SDS011;6521;50.498;8.474;2023-04-28T13:09:14;9.52;;;8.15;;
12906;SDS011;6521;50.498;8.474;2023-04-28T13:11:45;12.30;;;8.00;;
12906;SDS011;6521;50.498;8.474;2023-04-28T13:14:16;8.48;;;7.72;;
12906;SDS011;6521;50.498;8.474;2023-04-28T13:16:47;8.65;;;7.03;;
12906;SDS011;6521;50.498;8.474;2023-04-28T13:19:20;8.75;;;7.88;;
12906;SDS011;6521;50.498;8.474;2023-04-28T13:21:51;13.80;;;9.70;;
12906;SDS011;6521;50.498;8.474;2023-04-28T13:24:23;10.32;;;9.32;;
12906;SDS011;6521;50.498;8.474;2023-04-28T13:26:53;12.75;;;11.35;;
12906;SDS011;6521;50.498;8.474;2023-04-28T13:29:24;13.32;;;12.10;;
12906;SDS011;6521;50.498;8.474;2023-04-28T13:31:55;14.25;;;12.75;;
12906;SDS011;6521;50.498;8.474;2023-04-28T13:34:26;16.15;;;13.93;;
12906;SDS011;6521;50.498;8.474;2023-04-28T13:36:57;15.40;;;13.35;;
12906;SDS011;6521;50.498;8.474;2023-04-28T13:39:27;17.17;;;15.00;;
12906;SDS011;6521;50.498;8.474;2023-04-28T13:41:58;16.25;;;14.10;;
12906;SDS011;6521;50.498;8.474;2023-04-28T13:44:29;16.40;;;14.50;;
12906;SDS011;6521;50.498;8.474;2023-04-28T13:47:01;15.50;;;13.73;;
12906;SDS011;6521;50.498;8.474;2023-04-28T13:49:34;16.50;;;14.80;;
12906;SDS011;6521;50.498;8.474;2023-04-28T13:52:06;17.52;;;14.63;;
12906;SDS011;6521;50.498;8.474;2023-04-28T13:54:37;17.60;;;14.13;;
12906;SDS011;6521;50.498;8.474;2023-04-28T13:57:08;14.63;;;13.23;;
12906;SDS011;6521;50.498;8.474;2023-04-28T13:59:39;18.02;;;15.00;;
12906;SDS011;6521;50.498;8.474;2023-04-28T14:02:09;19.50;;;17.48;;
12906;SDS011;6521;50.498;8.474;2023-04-28T14:04:41;19.90;;;16.02;;
12906;SDS011;6521;50.498;8.474;2023-04-28T14:07:17;20.45;;;17.45;;
12906;SDS011;6521;50.498;8.474;2023-04-28T14:09:48;20.63;;;17.70;;
12906;SDS011;6521;50.498;8.474;2023-04-28T14:12:19;18.75;;;16.15;;
12906;SDS011;6521;50.498;8.474;2023-04-28T14:14:50;24.95;;;18.38;;
12906;SDS011;6521;50.498;8.474;2023-04-28T14:17:21;23.08;;;17.83;;
12906;SDS011;6521;50.498;8.474;2023-04-28T14:19:51;22.25;;;18.00;;
12906;SDS011;6521;50.498;8.474;2023-04-28T14:22:22;18.13;;;16.23;;
12906;SDS011;6521;50.498;8.474;2023-04-28T14:24:53;17.20;;;15.40;;
12906;SDS011;6521;50.498;8.474;2023-04-28T14:27:24;15.90;;;14.25;;
12906;SDS011;6521;50.498;8.474;2023-04-28T14:29:57;18.02;;;15.48;;
12906;SDS011;6521;50.498;8.474;2023-04-28T14:32:27;14.93;;;13.43;;
12906;SDS011;6521;50.498;8.474;2023-04-28T14:34:59;13.50;;;12.10;;
12906;SDS011;6521;50.498;8.474;2023-04-28T14:37:33;15.80;;;12.50;;
12906;SDS011;6521;50.498;8.474;2023-04-28T14:40:04;14.88;;;13.40;;
12906;SDS011;6521;50.498;8.474;2023-04-28T14:42:36;13.63;;;11.85;;
12906;SDS011;6521;50.498;8.474;2023-04-28T14:45:07;12.57;;;10.73;;
12906;SDS011;6521;50.498;8.474;2023-04-28T14:47:39;12.75;;;11.02;;
12906;SDS011;6521;50.498;8.474;2023-04-28T14:50:11;14.05;;;12.55;;
12906;SDS011;6521;50.498;8.474;2023-04-28T14:52:41;13.13;;;11.82;;
12906;SDS011;6521;50.498;8.474;2023-04-28T14:55:12;12.18;;;10.85;;
12906;SDS011;6521;50.498;8.474;2023-04-28T14:57:43;12.45;;;10.23;;
12906;SDS011;6521;50.498;8.474;2023-04-28T15:00:14;9.57;;;8.57;;
12906;SDS011;6521;50.498;8.474;2023-04-28T15:02:46;8.77;;;7.88;;
12906;SDS011;6521;50.498;8.474;2023-04-28T15:05:17;9.30;;;8.27;;
12906;SDS011;6521;50.498;8.474;2023-04-28T15:07:48;10.07;;;9.05;;
12906;SDS011;6521;50.498;8.474;2023-04-28T15:10:18;9.48;;;8.40;;
12906;SDS011;6521;50.498;8.474;2023-04-28T15:12:49;7.18;;;6.30;;
12906;SDS011;6521;50.498;8.474;2023-04-28T15:15:20;7.72;;;5.97;;
12906;SDS011;6521;50.498;8.474;2023-04-28T15:17:51;6.15;;;4.50;;
12906;SDS011;6521;50.498;8.474;2023-04-28T15:20:22;6.50;;;4.60;;
12906;SDS011;6521;50.498;8.474;2023-04-28T15:22:52;3.85;;;3.40;;
12906;SDS011;6521;50.498;8.474;2023-04-28T15:25:23;2.63;;;2.42;;
12906;SDS011;6521;50.498;8.474;2023-04-28T15:27:54;4.28;;;2.78;;
12906;SDS011;6521;50.498;8.474;2023-04-28T15:30:25;3.40;;;2.60;;
12906;SDS011;6521;50.498;8.474;2023-04-28T15:32:55;2.63;;;2.10;;
12906;SDS011;6521;50.498;8.474;2023-04-28T15:35:25;3.28;;;2.33;;
12906;SDS011;6521;50.498;8.474;2023-04-28T15:37:56;2.97;;;2.22;;
12906;SDS011;6521;50.498;8.474;2023-04-28T15:40:27;2.40;;;2.20;;
12906;SDS011;6521;50.498;8.474;2023-04-28T15:42:58;3.10;;;2.40;;
12906;SDS011;6521;50.498;8.474;2023-04-28T15:45:28;2.30;;;2.10;;
12906;SDS011;6521;50.498;8.474;2023-04-28T15:47:59;2.72;;;2.20;;
12906;SDS011;6521;50.498;8.474;2023-04-28T15:50:30;4.43;;;2.75;;
12906;SDS011;6521;50.498;8.474;2023-04-28T15:53:01;2.53;;;2.10;;
12906;SDS011;6521;50.498;8.474;2023-04-28T15:55:32;3.20;;;2.33;;
12906;SDS011;6521;50.498;8.474;2023-04-28T15:58:03;2.95;;;2.50;;
12906;SDS011;6521;50.498;8.474;2023-04-28T16:00:33;2.85;;;2.50;;
12906;SDS011;6521;50.498;8.474;2023-04-28T16:03:04;2.45;;;2.25;;
12906;SDS011;6521;50.498;8.474;2023-04-28T16:05:36;3.00;;;2.80;;
12906;SDS011;6521;50.498;8.474;2023-04-28T16:08:07;2.88;;;2.67;;
12906;SDS011;6521;50.498;8.474;2023-04-28T16:10:38;3.08;;;2.40;;
12906;SDS011;6521;50.498;8.474;2023-04-28T16:13:11;5.70;;;2.67;;
12906;SDS011;6521;50.498;8.474;2023-04-28T16:15:42;3.42;;;3.13;;
12906;SDS011;6521;50.498;8.474;2023-04-28T16:18:12;3.20;;;2.90;;
12906;SDS011;6521;50.498;8.474;2023-04-28T16:20:43;3.53;;;2.88;;
12906;SDS011;6521;50.498;8.474;2023-04-28T16:23:14;3.40;;;3.10;;
12906;SDS011;6521;50.498;8.474;2023-04-28T16:25:45;3.80;;;3.45;;
12906;SDS011;6521;50.498;8.474;2023-04-28T16:28:16;3.75;;;3.40;;
12906;SDS011;6521;50.498;8.474;2023-04-28T16:30:46;3.47;;;3.17;;
12906;SDS011;6521;50.498;8.474;2023-04-28T16:33:18;6.85;;;3.60;;
12906;SDS011;6521;50.498;8.474;2023-04-28T16:35:52;4.05;;;3.50;;
12906;SDS011;6521;50.498;8.474;2023-04-28T16:38:26;3.58;;;3.28;;
12906;SDS011;6521;50.498;8.474;2023-04-28T16:40:57;3.72;;;3.20;;
12906;SDS011;6521;50.498;8.474;2023-04-28T16:43:27;6.35;;;3.17;;
12906;SDS011;6521;50.498;8.474;2023-04-28T16:45:58;4.85;;;3.20;;
12906;SDS011;6521;50.498;8.474;2023-04-28T16:48:29;5.13;;;3.47;;
12906;SDS011;6521;50.498;8.474;2023-04-28T16:50:59;3.85;;;3.35;;
12906;SDS011;6521;50.498;8.474;2023-04-28T16:53:30;3.92;;;3.40;;
12906;SDS011;6521;50.498;8.474;2023-04-28T16:56:01;3.15;;;2.85;;
12906;SDS011;6521;50.498;8.474;2023-04-28T16:58:31;4.80;;;4.30;;
12906;SDS011;6521;50.498;8.474;2023-04-28T17:01:01;4.57;;;3.75;;
12906;SDS011;6521;50.498;8.474;2023-04-28T17:03:32;4.47;;;3.90;;
12906;SDS011;6521;50.498;8.474;2023-04-28T17:06:03;3.55;;;3.25;;
12906;SDS011;6521;50.498;8.474;2023-04-28T17:08:34;11.27;;;7.90;;